Time;durP1;ratioP1;P1;durP2;ratioP2;P2;SDS_P1;SDS_P2;PMS_P1;PMS_P2;Temp;Humidity;BMP_temperature;BMP_pressure;BME280_temperature;BME280_humidity;BME280_pressure;Samples;Min_cycle;Max_cycle;Signal;HPM_P1;HPM_P2
2024/04/04 00:01:34;;;;;;;3.50;0.52;;;10.60;99.90;;;;;;5048459;28;20162;-72
2024/04/04 00:04:00;;;;;;;4.35;0.47;;;10.50;99.90;;;;;;5038289;28;20080;-72
2024/04/04 00:06:25;;;;;;;4.85;0.28;;;10.50;99.90;;;;;;5045419;28;20063;-72
2024/04/04 00:08:52;;;;;;;1.35;0.38;;;10.50;99.90;;;;;;5051996;28;20141;-72
2024/04/04 00:11:17;;;;;;;2.83;0.50;;;10.50;99.90;;;;;;5045950;28;20473;-72
2024/04/04 00:13:44;;;;;;;4.18;0.40;;;10.50;99.90;;;;;;5044621;28;20091;-72
2024/04/04 00:16:09;;;;;;;2.05;0.32;;;10.40;99.90;;;;;;5051467;28;20048;-72
2024/04/04 00:18:35;;;;;;;0.88;0.45;;;10.50;99.90;;;;;;5046960;28;20040;-73
2024/04/04 00:21:02;;;;;;;1.80;0.25;;;10.40;99.90;;;;;;5049336;28;20186;-73
2024/04/04 00:23:27;;;;;;;7.68;0.75;;;10.40;99.90;;;;;;5045163;28;20048;-72
2024/04/04 00:25:53;;;;;;;1.67;1.08;;;10.40;99.90;;;;;;5045954;28;20044;-72
2024/04/04 00:28:19;;;;;;;8.95;0.68;;;10.40;99.90;;;;;;5050886;28;20041;-73
2024/04/04 00:30:45;;;;;;;2.20;0.40;;;10.40;99.90;;;;;;5046369;28;20387;-72
2024/04/04 00:33:10;;;;;;;1.13;0.57;;;10.40;99.90;;;;;;5047946;28;20059;-72
2024/04/04 00:35:36;;;;;;;2.20;0.70;;;10.40;99.90;;;;;;5045037;28;20059;-73
2024/04/04 00:38:02;;;;;;;4.32;0.60;;;10.40;99.90;;;;;;5049953;28;20044;-73
2024/04/04 00:40:36;;;;;;;1.48;0.35;;;10.40;99.90;;;;;;5052145;28;20036;-73
2024/04/04 00:43:02;;;;;;;3.10;0.70;;;10.40;99.90;;;;;;5044977;28;20123;-73
2024/04/04 00:45:28;;;;;;;3.80;0.90;;;10.40;99.90;;;;;;5043786;28;20381;-72
2024/04/04 00:47:55;;;;;;;1.52;0.70;;;10.40;99.90;;;;;;5046491;28;20040;-72
2024/04/04 00:50:20;;;;;;;1.83;0.35;;;10.30;99.90;;;;;;5038098;28;20083;-72
2024/04/04 00:52:47;;;;;;;1.08;0.20;;;10.40;99.90;;;;;;5051179;28;20376;-73
2024/04/04 00:55:12;;;;;;;1.00;0.38;;;10.40;99.90;;;;;;5044047;28;20041;-73
2024/04/04 00:57:39;;;;;;;1.92;0.45;;;10.40;99.90;;;;;;5050764;28;20499;-73
2024/04/04 01:00:06;;;;;;;4.55;0.80;;;10.30;99.90;;;;;;5047976;28;20037;-73
2024/04/04 01:02:32;;;;;;;5.68;0.93;;;10.30;99.90;;;;;;5048341;28;20412;-73
2024/04/04 01:04:58;;;;;;;2.20;0.30;;;10.30;99.90;;;;;;5050493;28;20382;-73
2024/04/04 01:07:25;;;;;;;1.67;0.57;;;10.20;99.90;;;;;;5045222;28;20059;-73
2024/04/04 01:09:50;;;;;;;3.10;0.45;;;10.20;99.90;;;;;;5043129;28;20111;-73
2024/04/04 01:12:16;;;;;;;2.33;0.25;;;10.20;99.90;;;;;;5043619;28;20070;-73
2024/04/04 01:14:42;;;;;;;2.10;0.30;;;10.20;99.90;;;;;;5046528;28;20036;-73
2024/04/04 01:17:07;;;;;;;0.80;0.20;;;10.20;99.90;;;;;;5032055;28;20055;-72
2024/04/04 01:19:33;;;;;;;0.50;0.40;;;10.10;99.90;;;;;;5039606;28;20056;-73
2024/04/04 01:21:59;;;;;;;0.75;0.57;;;10.00;99.90;;;;;;5043107;28;20052;-72
2024/04/04 01:24:25;;;;;;;1.40;0.52;;;10.00;99.90;;;;;;5043199;28;20094;-73
2024/04/04 01:26:50;;;;;;;7.65;0.47;;;9.80;99.90;;;;;;5043279;28;20041;-72
2024/04/04 01:29:16;;;;;;;0.32;0.17;;;9.90;99.90;;;;;;5046141;28;20376;-73
2024/04/04 01:31:42;;;;;;;0.38;0.17;;;9.90;99.90;;;;;;5064724;28;20044;-72
2024/04/04 01:34:08;;;;;;;2.50;0.65;;;9.80;99.90;;;;;;5045784;28;20403;-72
2024/04/04 01:36:33;;;;;;;0.40;0.10;;;9.70;99.90;;;;;;5043061;28;20047;-73
2024/04/04 01:38:59;;;;;;;3.03;0.30;;;9.70;99.90;;;;;;5043066;28;20506;-73
2024/04/04 01:41:25;;;;;;;0.52;0.22;;;9.60;99.90;;;;;;5037735;28;20052;-73
2024/04/04 01:43:50;;;;;;;4.20;0.25;;;9.60;99.90;;;;;;5043318;28;20507;-73
2024/04/04 01:46:16;;;;;;;1.02;0.30;;;9.40;99.90;;;;;;5042812;28;20048;-73
2024/04/04 01:48:42;;;;;;;2.28;0.52;;;9.50;99.90;;;;;;5046158;28;20113;-72
2024/04/04 01:51:07;;;;;;;2.22;0.55;;;9.40;99.90;;;;;;5041204;28;20056;-72
2024/04/04 01:53:35;;;;;;;2.10;0.32;;;9.30;99.90;;;;;;5038663;28;20496;-73
2024/04/04 01:56:01;;;;;;;0.28;0.25;;;9.30;99.90;;;;;;5045324;28;20493;-73
2024/04/04 01:58:27;;;;;;;4.68;0.43;;;9.20;99.90;;;;;;5043531;28;20059;-73
2024/04/04 02:00:53;;;;;;;1.55;0.47;;;9.20;99.90;;;;;;5044149;28;20049;-73
2024/04/04 02:03:18;;;;;;;6.53;0.93;;;9.10;99.90;;;;;;5046287;28;20062;-73
2024/04/04 02:05:44;;;;;;;3.42;0.57;;;9.10;99.90;;;;;;5046997;28;20512;-73
2024/04/04 02:08:10;;;;;;;3.88;0.40;;;9.00;99.90;;;;;;5045506;28;20036;-74
2024/04/04 02:10:36;;;;;;;0.50;0.22;;;9.00;99.90;;;;;;5049034;28;20480;-73
2024/04/04 02:13:03;;;;;;;1.65;0.35;;;8.90;99.90;;;;;;5049591;28;20655;-73
2024/04/04 02:15:29;;;;;;;2.38;0.70;;;8.90;99.90;;;;;;5049045;28;20507;-73
2024/04/04 02:17:55;;;;;;;5.15;0.55;;;8.90;99.90;;;;;;5044672;28;20040;-73
2024/04/04 02:20:22;;;;;;;7.68;0.43;;;8.90;99.90;;;;;;5044405;28;20116;-73
2024/04/04 02:22:49;;;;;;;0.52;0.10;;;8.80;99.90;;;;;;5043708;28;20068;-72
2024/04/04 02:25:15;;;;;;;4.95;0.68;;;8.80;99.90;;;;;;5045074;28;20759;-72
2024/04/04 02:27:41;;;;;;;1.33;0.38;;;8.70;99.90;;;;;;5050528;28;20036;-72
2024/04/04 02:30:07;;;;;;;0.95;0.30;;;8.70;99.90;;;;;;5048059;28;20162;-72
2024/04/04 02:32:32;;;;;;;1.80;0.60;;;8.60;99.90;;;;;;5047307;28;20102;-72
2024/04/04 02:34:58;;;;;;;1.25;0.68;;;8.60;99.90;;;;;;5050336;28;20484;-73
2024/04/04 02:37:25;;;;;;;5.55;0.60;;;8.60;99.90;;;;;;5047746;28;20116;-73
2024/04/04 02:39:51;;;;;;;5.82;0.50;;;8.50;99.90;;;;;;5050473;28;20151;-73
2024/04/04 02:42:16;;;;;;;3.17;0.50;;;8.50;99.90;;;;;;5050768;28;20049;-73
2024/04/04 02:44:42;;;;;;;3.97;0.82;;;8.50;99.90;;;;;;5053141;28;20127;-73
2024/04/04 02:47:08;;;;;;;0.52;0.13;;;8.50;99.90;;;;;;5049324;28;20416;-73
2024/04/04 02:49:33;;;;;;;5.65;0.55;;;8.40;99.90;;;;;;5049213;28;20037;-73
2024/04/04 02:51:59;;;;;;;0.65;0.30;;;8.40;99.90;;;;;;5047144;28;20079;-73
2024/04/04 02:54:25;;;;;;;1.52;0.50;;;8.40;99.90;;;;;;5049621;28;20098;-73
2024/04/04 02:56:50;;;;;;;0.95;0.30;;;8.40;99.90;;;;;;5050887;28;20616;-73
2024/04/04 02:59:16;;;;;;;6.22;0.80;;;8.40;99.90;;;;;;5042906;28;20412;-73
2024/04/04 03:01:42;;;;;;;0.75;0.28;;;8.30;99.90;;;;;;5047896;28;20488;-73
2024/04/04 03:04:09;;;;;;;1.95;1.17;;;8.30;99.90;;;;;;5048244;28;20123;-72
2024/04/04 03:06:36;;;;;;;0.45;0.20;;;8.20;99.90;;;;;;5045553;28;20053;-73
2024/04/04 03:09:08;;;;;;;2.78;0.52;;;8.20;99.90;;;;;;5045252;28;20470;-72
2024/04/04 03:11:36;;;;;;;1.65;0.30;;;8.30;99.90;;;;;;5046410;28;20044;-72
2024/04/04 03:14:02;;;;;;;3.03;0.25;;;8.30;99.90;;;;;;5043437;28;20037;-73
2024/04/04 03:16:28;;;;;;;2.17;1.33;;;8.20;99.90;;;;;;5045778;28;20602;-73
2024/04/04 03:18:54;;;;;;;0.50;0.30;;;8.20;99.90;;;;;;5052774;28;20451;-72
2024/04/04 03:21:20;;;;;;;1.17;0.52;;;8.20;99.90;;;;;;5046419;28;20506;-73
2024/04/04 03:23:45;;;;;;;5.03;0.50;;;8.30;99.90;;;;;;5048054;28;20036;-73
2024/04/04 03:26:11;;;;;;;4.28;0.25;;;8.20;99.90;;;;;;5044342;28;20128;-73
2024/04/04 03:28:37;;;;;;;3.05;1.25;;;8.30;99.90;;;;;;5046012;28;20040;-73
2024/04/04 03:31:03;;;;;;;0.10;0.08;;;8.30;99.90;;;;;;5047747;28;20071;-72
2024/04/04 03:33:28;;;;;;;2.00;0.43;;;8.30;99.90;;;;;;5043163;28;20025;-73
2024/04/04 03:35:55;;;;;;;0.43;0.10;;;8.30;99.90;;;;;;5044113;28;20122;-72
2024/04/04 03:38:21;;;;;;;3.67;0.45;;;8.30;99.90;;;;;;5048616;28;20037;-72
2024/04/04 03:40:56;;;;;;;0.15;0.08;;;8.30;99.90;;;;;;5040713;28;20073;-73
2024/04/04 03:43:22;;;;;;;0.13;0.13;;;8.40;99.90;;;;;;5053436;28;20036;-73
2024/04/04 03:45:48;;;;;;;0.20;0.20;;;8.40;99.90;;;;;;5067478;28;20140;-72
2024/04/04 03:48:19;;;;;;;4.43;0.20;;;8.40;99.90;;;;;;5050193;28;20044;-73
2024/04/04 03:50:46;;;;;;;0.93;0.15;;;8.50;99.90;;;;;;5045504;28;20128;-73
2024/04/04 03:53:13;;;;;;;3.42;0.52;;;8.50;99.90;;;;;;5050586;28;20036;-73
2024/04/04 03:55:41;;;;;;;4.10;0.30;;;8.60;99.90;;;;;;5045245;28;20040;-73
2024/04/04 03:58:07;;;;;;;7.53;0.68;;;8.60;99.90;;;;;;5047694;28;20076;-73
2024/04/04 04:00:33;;;;;;;4.65;0.55;;;8.60;99.90;;;;;;5041955;28;20037;-73
2024/04/04 04:02:58;;;;;;;2.28;1.02;;;8.70;99.90;;;;;;5046785;28;20542;-74
2024/04/04 04:05:24;;;;;;;3.80;0.22;;;8.70;99.90;;;;;;5043366;28;20151;-73
2024/04/04 04:07:50;;;;;;;3.83;0.52;;;8.70;99.90;;;;;;5049928;28;20093;-73
2024/04/04 04:10:16;;;;;;;3.35;0.40;;;8.70;99.90;;;;;;5045275;28;20484;-73
2024/04/04 04:12:42;;;;;;;3.90;0.32;;;8.70;99.90;;;;;;5045755;28;20033;-74
2024/04/04 04:15:07;;;;;;;1.20;0.20;;;8.80;99.90;;;;;;5049227;28;20415;-73
2024/04/04 04:17:33;;;;;;;2.65;0.90;;;8.70;99.90;;;;;;5042013;28;20047;-73
2024/04/04 04:19:59;;;;;;;0.30;0.20;;;8.90;99.90;;;;;;5051163;28;20083;-73
2024/04/04 04:22:25;;;;;;;0.15;0.10;;;8.80;99.90;;;;;;5039869;28;20041;-73
2024/04/04 04:24:50;;;;;;;0.05;0.00;;;8.80;99.90;;;;;;5045707;28;20044;-73
2024/04/04 04:27:16;;;;;;;2.08;0.68;;;8.80;99.90;;;;;;5030458;28;20044;-73
2024/04/04 04:29:42;;;;;;;5.82;0.63;;;8.90;99.90;;;;;;5041407;28;20048;-73
2024/04/04 04:32:07;;;;;;;7.53;0.30;;;9.00;99.90;;;;;;5024601;28;20040;-73
2024/04/04 04:34:33;;;;;;;2.92;0.30;;;8.90;99.90;;;;;;5048885;28;20094;-73
2024/04/04 04:37:06;;;;;;;0.30;0.10;;;8.90;99.90;;;;;;5045623;28;20110;-73
2024/04/04 04:39:32;;;;;;;0.15;0.15;;;9.00;99.90;;;;;;5042657;28;20040;-73
2024/04/04 04:41:58;;;;;;;0.68;0.35;;;9.00;99.90;;;;;;5062590;28;20448;-72
2024/04/04 04:44:24;;;;;;;1.00;0.20;;;9.00;99.90;;;;;;5033507;28;20040;-73
2024/04/04 04:46:50;;;;;;;0.68;0.20;;;8.90;99.90;;;;;;5046842;28;20082;-73
2024/04/04 04:49:18;;;;;;;2.85;0.30;;;9.00;99.90;;;;;;5048379;28;20037;-73
2024/04/04 04:51:44;;;;;;;0.30;0.15;;;9.00;99.90;;;;;;5043772;28;20396;-73
2024/04/04 04:54:10;;;;;;;0.20;0.20;;;9.00;99.90;;;;;;5051096;28;20052;-73
2024/04/04 04:56:36;;;;;;;11.20;0.50;;;9.10;99.90;;;;;;5044134;28;20076;-73
2024/04/04 04:59:01;;;;;;;6.03;0.28;;;9.10;99.90;;;;;;5046662;28;20091;-73
2024/04/04 05:01:27;;;;;;;0.75;0.13;;;9.10;99.90;;;;;;5049412;28;20095;-73
2024/04/04 05:04:05;;;;;;;0.52;0.38;;;9.10;99.90;;;;;;5047752;28;20055;-72
2024/04/04 05:06:31;;;;;;;2.65;0.55;;;9.10;99.90;;;;;;5041626;28;20044;-73
2024/04/04 05:08:56;;;;;;;0.10;0.10;;;9.10;99.90;;;;;;5041052;28;20478;-73
2024/04/04 05:11:22;;;;;;;0.65;0.32;;;9.10;99.90;;;;;;5039043;28;20041;-73
2024/04/04 05:13:48;;;;;;;1.83;0.30;;;9.20;99.90;;;;;;5028613;28;20042;-75
2024/04/04 05:16:14;;;;;;;0.50;0.22;;;9.10;99.90;;;;;;5064672;28;20128;-74
2024/04/04 05:18:39;;;;;;;0.17;0.10;;;9.10;99.90;;;;;;5043610;28;20408;-74
2024/04/04 05:21:05;;;;;;;1.13;0.30;;;9.10;99.90;;;;;;5048212;28;20132;-74
2024/04/04 05:23:32;;;;;;;4.13;0.57;;;9.10;99.90;;;;;;5046372;28;20037;-74
2024/04/04 05:25:57;;;;;;;0.52;0.30;;;9.10;99.90;;;;;;5039496;28;20063;-74
2024/04/04 05:28:26;;;;;;;1.15;0.73;;;9.20;99.90;;;;;;5044707;28;20104;-74
2024/04/04 05:30:54;;;;;;;4.68;0.50;;;9.20;99.90;;;;;;5048327;28;20041;-72
2024/04/04 05:33:21;;;;;;;0.20;0.20;;;9.20;99.90;;;;;;5042996;28;20036;-74
2024/04/04 05:35:47;;;;;;;0.98;0.55;;;9.20;99.90;;;;;;5034124;28;20480;-74
2024/04/04 05:38:13;;;;;;;1.92;0.20;;;9.20;99.90;;;;;;5043865;28;20105;-74
2024/04/04 05:40:39;;;;;;;3.65;0.30;;;9.20;99.90;;;;;;5046383;28;20047;-75
2024/04/04 05:43:05;;;;;;;3.58;0.80;;;9.20;99.90;;;;;;5045594;28;20056;-75
2024/04/04 05:45:31;;;;;;;6.38;0.90;;;9.20;99.90;;;;;;5043360;28;20040;-75
2024/04/04 05:47:56;;;;;;;1.10;0.52;;;9.20;99.90;;;;;;5042268;28;20040;-75
2024/04/04 05:50:22;;;;;;;3.30;0.75;;;9.20;99.90;;;;;;5043746;28;20059;-74
2024/04/04 05:52:48;;;;;;;3.47;0.82;;;9.10;99.90;;;;;;5030435;28;20051;-75
2024/04/04 05:55:14;;;;;;;8.82;1.50;;;9.10;99.90;;;;;;5037977;28;20040;-75
2024/04/04 05:57:40;;;;;;;6.18;1.40;;;9.20;99.90;;;;;;5044383;28;20105;-76
2024/04/04 06:00:08;;;;;;;11.43;2.38;;;9.10;99.90;;;;;;5045982;28;20531;-77
2024/04/04 06:02:34;;;;;;;6.00;1.38;;;9.10;99.90;;;;;;5045689;28;20064;-77
2024/04/04 06:04:59;;;;;;;9.35;1.73;;;9.20;99.90;;;;;;5038012;28;20678;-76
2024/04/04 06:07:25;;;;;;;9.00;2.08;;;9.10;99.90;;;;;;5069098;28;20124;-77
2024/04/04 06:09:51;;;;;;;7.18;1.60;;;9.10;99.90;;;;;;5048773;28;20090;-76
2024/04/04 06:12:16;;;;;;;8.63;2.45;;;9.10;99.90;;;;;;5046392;28;20431;-75
2024/04/04 06:14:45;;;;;;;5.68;2.05;;;9.20;99.90;;;;;;5066175;28;20116;-75
2024/04/04 06:17:11;;;;;;;7.90;2.47;;;9.10;99.90;;;;;;5047738;28;20041;-75
2024/04/04 06:19:37;;;;;;;8.98;2.45;;;9.10;99.90;;;;;;5031893;28;20044;-75
2024/04/04 06:22:03;;;;;;;8.40;2.83;;;9.20;99.90;;;;;;5048565;28;20459;-76
2024/04/04 06:24:28;;;;;;;12.90;3.17;;;9.10;99.90;;;;;;5047259;28;20348;-76
2024/04/04 06:26:54;;;;;;;8.75;3.13;;;9.00;99.90;;;;;;5045341;28;20040;-76
2024/04/04 06:29:22;;;;;;;10.27;2.20;;;9.10;99.90;;;;;;5046665;28;20135;-74
2024/04/04 06:31:49;;;;;;;12.40;2.97;;;9.10;99.90;;;;;;5048059;28;20044;-75
2024/04/04 06:34:16;;;;;;;6.80;3.20;;;9.20;99.90;;;;;;5048381;28;20048;-74
2024/04/04 06:36:42;;;;;;;9.93;3.83;;;9.20;99.90;;;;;;5044979;28;20045;-77
2024/04/04 06:39:09;;;;;;;10.02;3.20;;;9.20;99.90;;;;;;5048533;28;20044;-76
2024/04/04 06:41:35;;;;;;;12.43;4.15;;;9.20;99.90;;;;;;5046337;28;20078;-75
2024/04/04 06:44:01;;;;;;;12.02;4.07;;;9.30;99.90;;;;;;5046094;28;20095;-75
2024/04/04 06:46:27;;;;;;;7.05;3.42;;;9.20;99.90;;;;;;5042593;28;20127;-75
2024/04/04 06:48:52;;;;;;;5.65;2.10;;;9.30;99.90;;;;;;5046750;28;20036;-76
2024/04/04 06:51:18;;;;;;;3.78;2.30;;;9.30;99.90;;;;;;5045438;28;20037;-75
2024/04/04 06:53:47;;;;;;;11.55;2.90;;;9.40;99.90;;;;;;5050662;28;20388;-74
2024/04/04 06:56:12;;;;;;;9.80;3.40;;;9.40;99.90;;;;;;5052835;28;20503;-75
2024/04/04 06:58:38;;;;;;;7.78;3.22;;;9.40;99.90;;;;;;5049127;28;20074;-74
2024/04/04 07:01:04;;;;;;;11.93;3.83;;;9.40;99.90;;;;;;5049604;28;20480;-75
2024/04/04 07:03:29;;;;;;;16.52;10.23;;;9.40;99.90;;;;;;5050309;28;20052;-74
2024/04/04 07:05:55;;;;;;;7.68;2.28;;;9.50;99.90;;;;;;5047954;28;20091;-73
2024/04/04 07:08:21;;;;;;;13.57;7.68;;;9.60;99.90;;;;;;5051060;28;20484;-74
2024/04/04 07:10:47;;;;;;;4.80;3.05;;;9.60;99.90;;;;;;5046964;28;20036;-74
2024/04/04 07:13:16;;;;;;;5.38;4.00;;;9.60;99.90;;;;;;5047585;28;20047;-74
2024/04/04 07:15:42;;;;;;;7.15;3.53;;;9.70;99.90;;;;;;5047374;28;20032;-74
2024/04/04 07:18:10;;;;;;;5.85;2.83;;;9.70;99.90;;;;;;5044739;28;20040;-74
2024/04/04 07:20:39;;;;;;;4.15;3.67;;;9.80;99.90;;;;;;5050378;28;20041;-74
2024/04/04 07:23:05;;;;;;;7.63;5.13;;;9.80;99.90;;;;;;5045776;28;20051;-75
2024/04/04 07:25:32;;;;;;;13.43;9.30;;;9.80;99.90;;;;;;5045835;28;20089;-74
2024/04/04 07:27:58;;;;;;;7.18;5.20;;;9.90;99.90;;;;;;5042095;28;20087;-74
2024/04/04 07:30:24;;;;;;;6.30;4.35;;;9.90;99.90;;;;;;5048752;28;20070;-73
2024/04/04 07:32:50;;;;;;;11.43;5.90;;;10.00;99.90;;;;;;5041524;28;20135;-74
2024/04/04 07:35:16;;;;;;;10.60;6.80;;;10.00;99.90;;;;;;5051116;28;20043;-73
2024/04/04 07:37:42;;;;;;;6.10;2.33;;;10.10;99.90;;;;;;5043861;28;20047;-73
2024/04/04 07:40:08;;;;;;;12.02;6.00;;;10.10;99.90;;;;;;5041222;28;20435;-73
2024/04/04 07:42:34;;;;;;;7.03;4.57;;;10.20;99.90;;;;;;5047239;28;20090;-74
2024/04/04 07:45:00;;;;;;;9.73;6.38;;;10.30;99.90;;;;;;5040732;28;20044;-73
2024/04/04 07:47:26;;;;;;;5.95;2.80;;;10.30;99.90;;;;;;5045383;28;20039;-73
2024/04/04 07:49:52;;;;;;;6.90;3.30;;;10.40;99.90;;;;;;5043846;28;20186;-73
2024/04/04 07:52:22;;;;;;;8.00;4.07;;;10.40;99.90;;;;;;5049630;28;20063;-73
2024/04/04 07:54:47;;;;;;;6.60;3.72;;;10.50;99.90;;;;;;5062979;28;20039;-73
2024/04/04 07:57:13;;;;;;;7.68;5.90;;;10.60;99.90;;;;;;5043591;28;20036;-73
2024/04/04 07:59:39;;;;;;;7.57;3.92;;;10.60;99.90;;;;;;5043048;28;20036;-73
2024/04/04 08:02:05;;;;;;;10.75;6.05;;;10.70;99.90;;;;;;5064293;28;20554;-72
2024/04/04 08:04:31;;;;;;;7.35;4.97;;;10.70;99.90;;;;;;5044071;28;20040;-73
2024/04/04 08:06:57;;;;;;;10.20;6.82;;;10.70;99.90;;;;;;5047977;28;20076;-73
2024/04/04 08:09:23;;;;;;;8.20;5.43;;;10.80;99.90;;;;;;5046869;28;20441;-73
2024/04/04 08:11:49;;;;;;;8.15;3.80;;;10.80;99.90;;;;;;5064460;28;20115;-73
2024/04/04 08:14:16;;;;;;;10.93;6.28;;;10.80;99.90;;;;;;5045586;28;20511;-72
2024/04/04 08:16:43;;;;;;;12.50;5.90;;;10.80;99.90;;;;;;5049096;28;20042;-73
2024/04/04 08:19:08;;;;;;;5.05;2.92;;;10.80;99.90;;;;;;5045507;28;20135;-73
2024/04/04 08:21:34;;;;;;;10.65;7.28;;;10.80;99.90;;;;;;5047488;28;20128;-72
2024/04/04 08:23:59;;;;;;;12.55;6.28;;;10.90;99.90;;;;;;5044080;28;20047;-72
2024/04/04 08:26:25;;;;;;;6.55;3.15;;;10.80;99.90;;;;;;5042938;28;20471;-71
2024/04/04 08:28:51;;;;;;;13.05;9.27;;;10.80;99.90;;;;;;5044589;28;20029;-71
2024/04/04 08:31:17;;;;;;;12.00;8.55;;;10.90;99.90;;;;;;5050409;28;20043;-72
2024/04/04 08:33:43;;;;;;;10.95;7.30;;;10.90;99.90;;;;;;5033493;28;20037;-73
2024/04/04 08:36:09;;;;;;;10.27;7.70;;;11.00;99.90;;;;;;5048110;28;20044;-73
2024/04/04 08:38:34;;;;;;;8.13;6.28;;;11.10;99.90;;;;;;5048331;28;20423;-72
2024/04/04 08:41:08;;;;;;;8.25;5.93;;;11.00;99.90;;;;;;5048171;28;20123;-72
2024/04/04 08:43:37;;;;;;;8.07;6.63;;;11.10;99.90;;;;;;5048193;28;20048;-73
2024/04/04 08:46:07;;;;;;;8.30;6.65;;;11.10;99.90;;;;;;5042781;28;20032;-73
2024/04/04 08:48:33;;;;;;;9.73;7.47;;;11.20;99.90;;;;;;5049242;28;20037;-73
2024/04/04 08:51:00;;;;;;;8.57;5.82;;;11.20;99.90;;;;;;5040077;28;20542;-72
2024/04/04 08:53:27;;;;;;;8.65;6.78;;;11.30;99.90;;;;;;5049508;28;20143;-72
2024/04/04 08:55:55;;;;;;;6.88;6.00;;;11.30;99.90;;;;;;5044312;28;20037;-72
2024/04/04 08:58:25;;;;;;;11.35;7.03;;;11.40;99.90;;;;;;5049926;28;20037;-73
2024/04/04 09:00:51;;;;;;;7.15;5.10;;;11.40;99.90;;;;;;5044996;28;20041;-72
2024/04/04 09:03:18;;;;;;;8.65;5.72;;;11.40;99.90;;;;;;5046231;28;20416;-72
2024/04/04 09:05:49;;;;;;;7.80;5.13;;;11.50;99.90;;;;;;5045509;28;20109;-72
2024/04/04 09:08:16;;;;;;;6.45;4.70;;;11.60;99.90;;;;;;5047943;28;20044;-73
2024/04/04 09:10:42;;;;;;;7.28;5.65;;;11.50;99.90;;;;;;5045318;28;20125;-72
2024/04/04 09:13:10;;;;;;;5.18;4.55;;;11.60;99.90;;;;;;5043919;28;20572;-72
2024/04/04 09:15:40;;;;;;;6.97;5.70;;;11.70;99.90;;;;;;5043976;28;20036;-73
2024/04/04 09:18:08;;;;;;;6.72;5.05;;;11.80;99.90;;;;;;5042704;28;20056;-72
2024/04/04 09:20:43;;;;;;;7.97;5.35;;;11.70;99.90;;;;;;5037564;28;20029;-73
2024/04/04 09:23:10;;;;;;;7.25;4.40;;;11.80;99.90;;;;;;5063571;28;20077;-73
2024/04/04 09:25:37;;;;;;;6.30;4.72;;;11.90;99.90;;;;;;5037078;28;20044;-72
2024/04/04 09:28:04;;;;;;;6.35;5.32;;;11.90;99.90;;;;;;5045206;28;20397;-72
2024/04/04 09:30:32;;;;;;;7.47;4.90;;;11.90;99.90;;;;;;5027687;28;20033;-72
2024/04/04 09:32:58;;;;;;;8.80;4.43;;;12.00;99.90;;;;;;5042064;28;20029;-73
2024/04/04 09:35:24;;;;;;;6.60;4.72;;;12.00;99.90;;;;;;5044372;28;20498;-73
2024/04/04 09:37:51;;;;;;;6.30;4.47;;;12.00;99.90;;;;;;5047734;28;20119;-72
2024/04/04 09:40:17;;;;;;;8.32;4.38;;;12.10;99.90;;;;;;5049485;28;20076;-73
2024/04/04 09:42:45;;;;;;;12.45;5.60;;;12.00;99.90;;;;;;5046467;28;20047;-73
2024/04/04 09:45:12;;;;;;;8.30;5.00;;;12.00;99.90;;;;;;5048939;28;20090;-73
2024/04/04 09:47:43;;;;;;;7.10;4.88;;;12.00;99.90;;;;;;5045387;28;20037;-73
2024/04/04 09:50:09;;;;;;;8.82;4.72;;;12.00;99.90;;;;;;5045703;28;20124;-71
2024/04/04 09:52:37;;;;;;;11.82;4.82;;;11.90;99.90;;;;;;5042842;28;20048;-70
2024/04/04 09:55:08;;;;;;;7.35;5.43;;;11.80;99.90;;;;;;5047135;28;20036;-70
2024/04/04 09:57:39;;;;;;;10.15;5.90;;;11.80;99.90;;;;;;5044528;28;20047;-70
2024/04/04 10:00:15;;;;;;;9.18;5.65;;;11.80;99.90;;;;;;5046107;28;20044;-71
2024/04/04 10:02:57;;;;;;;11.18;5.60;;;11.80;99.90;;;;;;5040830;28;20481;-72
2024/04/04 10:05:33;;;;;;;11.23;5.53;;;11.80;99.90;;;;;;5064290;28;20059;-71
2024/04/04 10:08:10;;;;;;;8.57;4.75;;;11.80;99.90;;;;;;5047633;28;20044;-72
2024/04/04 10:10:36;;;;;;;6.35;4.20;;;11.80;99.90;;;;;;5047421;28;20111;-71
2024/04/04 10:13:11;;;;;;;3.80;1.70;;;11.80;99.90;;;;;;5034977;28;20127;-70
2024/04/04 10:15:43;;;;;;;3.08;1.25;;;11.80;99.90;;;;;;5049705;28;20041;-71
2024/04/04 10:18:13;;;;;;;3.63;1.67;;;11.70;99.90;;;;;;5041567;28;20048;-71
2024/04/04 10:20:58;;;;;;;5.05;2.10;;;11.70;99.90;;;;;;5049034;28;20044;-71
2024/04/04 10:23:30;;;;;;;4.68;1.88;;;11.70;99.90;;;;;;5047496;28;20032;-73
2024/04/04 10:26:06;;;;;;;4.55;2.08;;;11.80;99.90;;;;;;5045465;28;20045;-73
2024/04/04 10:28:31;;;;;;;4.90;2.53;;;11.80;99.90;;;;;;5044698;28;20039;-74
2024/04/04 10:30:58;;;;;;;8.65;3.15;;;11.90;99.90;;;;;;5049046;28;20044;-73
2024/04/04 10:33:24;;;;;;;9.50;4.15;;;12.00;99.90;;;;;;5045499;28;20060;-74
2024/04/04 10:35:57;;;;;;;8.23;3.90;;;12.20;99.90;;;;;;5046563;28;20036;-73
2024/04/04 10:38:22;;;;;;;11.00;4.57;;;12.40;99.90;;;;;;5047884;28;20048;-73
2024/04/04 10:40:48;;;;;;;11.32;5.10;;;12.50;99.90;;;;;;5046211;28;20032;-74
2024/04/04 10:43:13;;;;;;;11.68;5.13;;;12.60;99.90;;;;;;5042886;28;20041;-73
2024/04/04 10:45:39;;;;;;;13.10;6.35;;;12.60;99.90;;;;;;5048235;28;20459;-74
2024/04/04 10:48:06;;;;;;;13.80;5.25;;;12.60;99.90;;;;;;5039164;28;20078;-73
2024/04/04 10:50:34;;;;;;;11.57;5.38;;;12.70;99.90;;;;;;5052097;28;20047;-73
2024/04/04 10:53:00;;;;;;;10.07;5.05;;;12.90;99.90;;;;;;5051454;28;20036;-73
2024/04/04 10:55:28;;;;;;;13.02;5.43;;;12.90;99.90;;;;;;5046659;28;20041;-72
2024/04/04 10:57:54;;;;;;;8.40;3.53;;;12.90;99.90;;;;;;5048402;28;20040;-72
2024/04/04 11:00:29;;;;;;;7.78;3.42;;;12.90;99.90;;;;;;5059513;28;20041;-73
2024/04/04 11:02:58;;;;;;;6.68;2.38;;;12.90;99.90;;;;;;5055358;28;20048;-73
2024/04/04 11:05:23;;;;;;;10.52;2.42;;;12.90;99.90;;;;;;5048764;28;20434;-73
2024/04/04 11:07:57;;;;;;;5.85;2.10;;;12.90;99.90;;;;;;5048189;28;20037;-72
2024/04/04 11:10:23;;;;;;;6.43;2.33;;;12.90;99.90;;;;;;5068539;28;20037;-73
2024/04/04 11:12:48;;;;;;;11.93;2.35;;;12.90;99.90;;;;;;5048917;28;20033;-72
2024/04/04 11:15:15;;;;;;;7.28;1.63;;;13.00;99.90;;;;;;5059166;28;20119;-72
2024/04/04 11:17:41;;;;;;;5.78;2.15;;;13.10;99.90;;;;;;5050543;28;20040;-72
2024/04/04 11:20:14;;;;;;;7.45;2.35;;;13.30;99.90;;;;;;5047106;28;20071;-72
2024/04/04 11:22:44;;;;;;;5.20;1.60;;;13.50;99.90;;;;;;5068878;28;20400;-72
2024/04/04 11:25:11;;;;;;;5.25;1.30;;;13.80;99.90;;;;;;5037501;28;20535;-73
2024/04/04 11:27:38;;;;;;;9.00;1.50;;;13.80;99.90;;;;;;5046401;28;20041;-72
2024/04/04 11:30:05;;;;;;;7.47;1.70;;;13.90;99.90;;;;;;5052405;28;20074;-73
2024/04/04 11:32:31;;;;;;;5.68;0.98;;;13.90;99.90;;;;;;5045789;28;20051;-73
2024/04/04 11:34:57;;;;;;;5.05;1.20;;;14.00;99.90;;;;;;5048911;28;20032;-72
2024/04/04 11:37:25;;;;;;;6.97;1.45;;;14.00;99.90;;;;;;5049787;28;20076;-73
2024/04/04 11:39:52;;;;;;;8.85;1.65;;;13.90;99.90;;;;;;5046681;28;20040;-73
2024/04/04 11:42:18;;;;;;;6.45;1.30;;;13.90;99.90;;;;;;5046498;28;20041;-73
2024/04/04 11:44:44;;;;;;;6.75;1.00;;;13.90;99.90;;;;;;5048531;28;20497;-73
2024/04/04 11:47:13;;;;;;;5.95;1.58;;;14.40;99.90;;;;;;5045225;28;20052;-74
2024/04/04 11:49:39;;;;;;;6.40;1.48;;;14.60;99.90;;;;;;5049644;28;20411;-74
2024/04/04 11:52:08;;;;;;;9.52;1.80;;;14.60;99.90;;;;;;5042592;28;20051;-73
2024/04/04 11:54:33;;;;;;;5.97;1.38;;;14.50;99.90;;;;;;5054017;28;20044;-73
2024/04/04 11:56:59;;;;;;;9.25;1.92;;;14.60;99.90;;;;;;5044359;28;20051;-74
2024/04/04 11:59:25;;;;;;;5.40;1.13;;;14.50;99.90;;;;;;5069370;28;20040;-73
2024/04/04 12:01:52;;;;;;;8.73;1.48;;;14.40;99.90;;;;;;5039600;28;20470;-74
2024/04/04 12:04:18;;;;;;;9.00;1.85;;;14.30;99.90;;;;;;5051844;28;20055;-73
2024/04/04 12:06:44;;;;;;;7.97;1.48;;;14.30;99.90;;;;;;5058678;28;20083;-74
2024/04/04 12:09:10;;;;;;;8.23;1.92;;;14.20;99.90;;;;;;5048422;28;20037;-73
2024/04/04 12:11:40;;;;;;;9.65;1.38;;;14.20;99.90;;;;;;5064756;28;20047;-73
2024/04/04 12:14:07;;;;;;;9.85;1.95;;;14.40;99.90;;;;;;5047721;28;20528;-73
2024/04/04 12:16:33;;;;;;;9.20;1.42;;;14.90;99.90;;;;;;5032905;28;20074;-72
2024/04/04 12:21:43;;;;;;;5.53;1.30;;;15.10;99.90;;;;;;5067913;28;20082;-73
2024/04/04 12:24:09;;;;;;;11.70;1.85;;;15.40;99.90;;;;;;5048854;28;20045;-73
2024/04/04 12:26:35;;;;;;;11.55;1.50;;;15.30;99.90;;;;;;5040021;28;20041;-73
2024/04/04 12:29:01;;;;;;;13.05;4.03;;;15.80;99.90;;;;;;5046969;28;20044;-72
2024/04/04 12:31:28;;;;;;;12.10;4.68;;;16.60;99.90;;;;;;5043678;28;20029;-73
2024/04/04 12:33:54;;;;;;;11.52;2.15;;;16.50;99.90;;;;;;5042235;28;20041;-74
2024/04/04 12:36:20;;;;;;;12.40;1.95;;;16.10;99.90;;;;;;5049700;28;20384;-73
2024/04/04 12:38:45;;;;;;;10.38;2.25;;;15.60;99.90;;;;;;5047702;28;20492;-74
2024/04/04 12:41:11;;;;;;;12.70;2.42;;;15.30;99.90;;;;;;5045911;28;20040;-73
2024/04/04 12:43:37;;;;;;;19.42;7.35;;;15.00;99.90;;;;;;5043006;28;20492;-73
2024/04/04 12:46:04;;;;;;;13.70;2.35;;;14.80;99.90;;;;;;5041828;28;20041;-73
2024/04/04 12:48:33;;;;;;;12.93;2.10;;;14.60;99.90;;;;;;5041718;28;20037;-74
2024/04/04 12:51:00;;;;;;;10.95;1.85;;;14.50;99.90;;;;;;5051249;28;20068;-74